createdAt,value
2019-04-26T00:01:11.802Z,98330.88
2019-04-26T00:03:46.286Z,98338.98
2019-04-26T00:09:23.828Z,98315.19
2019-04-26T00:12:14.514Z,98330.11
2019-04-26T00:14:48.818Z,98334.75
2019-04-26T00:17:23.301Z,98321.59
2019-04-26T00:19:56.420Z,98312.45
2019-04-26T00:22:29.317Z,98309.53
2019-04-26T00:25:01.812Z,98311.60
2019-04-26T00:27:36.022Z,98306.45
2019-04-26T00:30:10.687Z,98322.25
2019-04-26T00:32:44.460Z,98337.20
2019-04-26T00:35:17.739Z,98347.87
2019-04-26T00:37:50.378Z,98346.81
2019-04-26T00:40:23.071Z,98346.16
2019-04-26T00:42:57.659Z,98332.49
2019-04-26T00:45:35.292Z,98342.24
2019-04-26T00:48:08.978Z,98313.70
2019-04-26T00:50:41.923Z,98313.70
2019-04-26T00:53:17.621Z,98324.40
2019-04-26T00:55:51.736Z,98327.25
2019-04-26T00:58:25.541Z,98342.50
2019-04-26T01:00:57.253Z,98346.44
2019-04-26T01:03:29.698Z,98349.81
2019-04-26T01:06:03.898Z,98345.97
2019-04-26T01:08:36.496Z,98346.70
2019-04-26T01:11:47.819Z,98342.31
2019-04-26T01:14:20.395Z,98342.31
2019-04-26T01:16:52.221Z,98343.41
2019-04-26T01:19:26.611Z,98343.41
2019-04-26T01:22:02.478Z,98347.94
2019-04-26T01:24:37.766Z,98361.02
2019-04-26T01:27:12.283Z,98367.33
2019-04-26T01:29:47.392Z,98348.95
2019-04-26T01:32:22.080Z,98352.00
2019-04-26T01:34:57.297Z,98352.00
2019-04-26T01:37:31.985Z,98364.80
2019-04-26T01:40:11.642Z,98365.45
2019-04-26T01:42:56.304Z,98362.50
2019-04-26T01:45:32.112Z,98359.45
2019-04-26T01:48:13.853Z,98359.45
2019-04-26T01:50:46.342Z,98367.10
2019-04-26T01:53:21.030Z,98352.69
2019-04-26T01:55:53.837Z,98367.44
2019-04-26T01:58:27.293Z,98367.44
2019-04-26T02:01:04.775Z,98374.03
2019-04-26T02:03:38.046Z,98374.03
2019-04-26T02:06:10.609Z,98372.44
2019-04-26T02:08:43.295Z,98366.35
2019-04-26T02:11:15.645Z,98371.31
2019-04-26T02:13:48.872Z,98371.31
2019-04-26T02:16:21.375Z,98383.92
2019-04-26T02:18:53.509Z,98391.08
2019-04-26T02:21:30.249Z,98378.00
2019-04-26T02:24:05.533Z,98370.31
2019-04-26T02:26:45.374Z,98369.41
2019-04-26T02:29:28.588Z,98377.44
2019-04-26T02:32:07.285Z,98377.44
2019-04-26T02:34:41.049Z,98379.73
2019-04-26T02:37:16.621Z,98379.73
2019-04-26T02:39:49.298Z,98382.45
2019-04-26T02:42:39.306Z,98383.95
2019-04-26T02:45:34.765Z,98382.45
2019-04-26T02:48:22.383Z,98382.45
2019-04-26T02:51:01.842Z,98382.01
2019-04-26T02:53:46.536Z,98382.01
2019-04-26T02:56:45.375Z,98391.77
2019-04-26T02:59:38.256Z,98390.09
2019-04-26T03:02:16.552Z,98406.00
2019-04-26T03:04:51.757Z,98408.47
2019-04-26T03:07:53.504Z,98365.75
2019-04-26T03:10:32.700Z,98365.75
2019-04-26T03:13:12.593Z,98365.50
2019-04-26T03:15:55.476Z,98362.87
2019-04-26T03:18:43.046Z,98376.73
2019-04-26T03:21:39.507Z,98377.63
2019-04-26T03:24:42.448Z,98378.27
2019-04-26T03:27:43.484Z,98380.91
2019-04-26T03:30:51.770Z,98392.31
2019-04-26T03:34:10.930Z,98390.34
2019-04-26T03:37:40.454Z,98387.56
2019-04-26T03:40:51.594Z,98384.34
2019-04-26T03:43:55.605Z,98395.56
2019-04-26T03:46:53.686Z,98391.52
2019-04-26T03:50:05.531Z,98383.86
2019-04-26T03:53:19.405Z,98388.27
2019-04-26T03:56:24.292Z,98384.70
2019-04-26T03:59:12.317Z,98401.83
2019-04-26T04:01:53.555Z,98401.83
2019-04-26T04:04:38.878Z,98406.36
2019-04-26T04:07:18.261Z,98397.92
2019-04-26T04:10:00.503Z,98397.92
2019-04-26T04:12:46.313Z,98406.42
2019-04-26T04:15:52.319Z,98416.00
2019-04-26T04:18:32.339Z,98419.90
2019-04-26T04:22:00.295Z,98420.99
2019-04-26T04:24:57.295Z,98404.57
2019-04-26T04:27:45.778Z,98409.00
2019-04-26T04:30:27.372Z,98409.00
2019-04-26T04:33:13.035Z,98410.80
2019-04-26T04:35:57.518Z,98410.80
2019-04-26T04:39:11.338Z,98434.06
2019-04-26T04:41:50.825Z,98435.55
2019-04-26T04:45:04.307Z,98445.33
2019-04-26T04:48:34.800Z,98438.89
2019-04-26T04:51:40.874Z,98445.34
2019-04-26T04:54:41.531Z,98457.52
2019-04-26T04:58:06.046Z,98457.52
2019-04-26T05:04:10.663Z,98465.00
2019-04-26T05:07:35.645Z,98471.75
2019-04-26T05:13:37.846Z,98474.24
2019-04-26T05:16:46.489Z,98474.24
2019-04-26T05:20:00.501Z,98484.53
2019-04-26T05:23:32.329Z,98495.62
2019-04-26T05:26:33.344Z,98474.44
2019-04-26T05:29:49.934Z,98474.44
2019-04-26T05:33:04.850Z,98516.34
2019-04-26T05:36:23.451Z,98514.03
2019-04-26T05:39:09.558Z,98514.84
2019-04-26T05:42:30.666Z,98518.55
2019-04-26T05:45:56.696Z,98529.41
2019-04-26T05:49:12.114Z,98532.17
2019-04-26T05:52:53.058Z,98538.73
2019-04-26T05:56:03.733Z,98553.54
2019-04-26T05:59:22.290Z,98554.18
2019-04-26T06:02:47.605Z,98574.11
2019-04-26T06:06:07.688Z,98574.11
2019-04-26T06:09:26.561Z,98581.55
2019-04-26T06:12:39.284Z,98584.88
2019-04-26T06:15:52.865Z,98579.23
2019-04-26T06:18:59.785Z,98579.23
2019-04-26T06:22:10.050Z,98581.67
2019-04-26T06:25:26.435Z,98571.70
2019-04-26T06:28:11.602Z,98577.73
2019-04-26T06:31:11.414Z,98585.01
2019-04-26T06:34:02.975Z,98587.73
2019-04-26T06:36:43.325Z,98584.63
2019-04-26T06:39:34.657Z,98607.81
2019-04-26T06:42:36.088Z,98607.81
2019-04-26T06:45:20.713Z,98610.09
2019-04-26T06:48:07.442Z,98616.41
2019-04-26T06:51:24.943Z,98620.47
2019-04-26T06:54:16.331Z,98627.28
2019-04-26T06:57:18.831Z,98645.59
2019-04-26T07:00:26.671Z,98645.59
2019-04-26T07:03:41.367Z,98647.08
2019-04-26T07:06:34.330Z,98648.52
2019-04-26T07:09:11.754Z,98633.16
2019-04-26T07:12:32.379Z,98648.75
2019-04-26T07:15:28.802Z,98658.16
2019-04-26T07:18:50.285Z,98613.77
2019-04-26T07:22:19.544Z,98613.77
2019-04-26T07:25:53.225Z,98651.59
2019-04-26T07:28:51.051Z,98658.94
2019-04-26T07:31:58.732Z,98660.78
2019-04-26T07:35:18.925Z,98667.30
2019-04-26T07:38:19.432Z,98663.86
2019-04-26T07:41:21.569Z,98673.66
2019-04-26T07:44:30.994Z,98668.13
2019-04-26T07:47:43.981Z,98692.58
2019-04-26T07:51:14.126Z,98695.31
2019-04-26T07:54:46.552Z,98697.98
2019-04-26T07:57:43.776Z,98702.78
2019-04-26T08:00:44.923Z,98719.06
2019-04-26T08:03:30.297Z,98719.72
2019-04-26T08:06:27.141Z,98725.84
2019-04-26T08:09:25.920Z,98722.80
2019-04-26T08:11:58.301Z,98724.94
2019-04-26T08:15:00.085Z,98738.38
2019-04-26T08:17:44.440Z,98738.38
2019-04-26T08:20:41.717Z,98720.98
2019-04-26T08:23:38.530Z,98713.12
2019-04-26T08:26:07.603Z,98725.66
2019-04-26T08:28:44.611Z,98718.96
2019-04-26T08:31:24.418Z,98729.77
2019-04-26T08:34:02.142Z,98737.58
2019-04-26T08:36:39.458Z,98737.58
2019-04-26T08:39:32.390Z,98743.31
2019-04-26T08:42:04.340Z,98740.63
2019-04-26T08:44:42.599Z,98737.32
2019-04-26T08:47:26.554Z,98745.80
2019-04-26T08:50:04.254Z,98748.20
2019-04-26T08:52:40.963Z,98759.05
2019-04-26T08:55:16.041Z,98769.80
2019-04-26T08:57:52.482Z,98776.31
2019-04-26T09:00:29.631Z,98773.67
2019-04-26T09:03:18.303Z,98763.40
2019-04-26T09:06:04.621Z,98774.57
2019-04-26T09:08:43.588Z,98774.57
2019-04-26T09:11:26.035Z,98778.55
2019-04-26T09:14:19.032Z,98796.97
2019-04-26T09:16:53.616Z,98797.88
2019-04-26T09:19:30.451Z,98786.17
2019-04-26T09:22:13.641Z,98804.81
2019-04-26T09:24:59.298Z,98802.78
2019-04-26T09:27:45.295Z,98795.05
2019-04-26T09:30:19.861Z,98775.83
2019-04-26T09:32:54.329Z,98775.83
2019-04-26T09:35:26.868Z,98796.58
2019-04-26T09:37:59.454Z,98801.38
2019-04-26T09:40:32.297Z,98816.58
2019-04-26T09:43:10.487Z,98786.72
2019-04-26T09:45:49.503Z,98770.70
2019-04-26T09:48:23.861Z,98770.70
2019-04-26T09:50:58.302Z,98806.14
2019-04-26T09:53:30.329Z,98817.09
2019-04-26T09:56:02.940Z,98823.16
2019-04-26T09:58:35.369Z,98823.16
2019-04-26T10:01:08.479Z,98821.66
2019-04-26T10:03:41.049Z,98826.73
2019-04-26T10:06:13.681Z,98828.88
2019-04-26T10:08:47.064Z,98827.23
2019-04-26T10:11:22.619Z,98816.08
2019-04-26T10:13:59.218Z,98811.73
2019-04-26T10:16:37.632Z,98809.17
2019-04-26T10:19:11.707Z,98807.35
2019-04-26T10:21:43.300Z,98803.39
2019-04-26T10:24:16.904Z,98795.47
2019-04-26T10:26:49.487Z,98803.17
2019-04-26T10:29:25.721Z,98794.57
2019-04-26T10:31:59.853Z,98791.31
2019-04-26T10:34:32.050Z,98795.14
2019-04-26T10:37:06.065Z,98785.80
2019-04-26T10:39:41.597Z,98790.59
2019-04-26T10:42:14.361Z,98794.14
2019-04-26T10:44:47.218Z,98796.19
2019-04-26T10:47:19.999Z,98800.61
2019-04-26T10:49:54.339Z,98804.31
2019-04-26T10:52:49.678Z,98809.88
2019-04-26T10:55:20.444Z,98813.03
2019-04-26T10:57:53.530Z,98818.22
2019-04-26T11:00:28.528Z,98821.34
2019-04-26T11:04:09.551Z,98831.83
2019-04-26T11:06:42.370Z,98841.94
2019-04-26T11:09:15.299Z,98839.94
2019-04-26T11:11:48.299Z,98843.09
2019-04-26T11:14:22.612Z,98810.30
2019-04-26T11:16:56.296Z,98810.30
2019-04-26T11:19:31.946Z,98826.92
2019-04-26T11:22:03.305Z,98826.92
2019-04-26T11:24:35.792Z,98838.12
2019-04-26T11:27:09.802Z,98837.71
2019-04-26T11:29:53.260Z,98833.15
2019-04-26T11:32:17.694Z,98827.36
2019-04-26T11:34:54.552Z,98837.41
2019-04-26T11:37:25.641Z,98835.69
2019-04-26T11:39:58.320Z,98835.06
2019-04-26T11:42:31.087Z,98833.91
2019-04-26T11:45:06.331Z,98827.40
2019-04-26T11:47:54.298Z,98846.83
2019-04-26T11:50:16.113Z,98859.66
2019-04-26T11:52:50.300Z,98865.95
2019-04-26T11:55:25.445Z,98856.08
2019-04-26T11:57:57.674Z,98852.13
2019-04-26T12:00:35.310Z,98855.29
2019-04-26T12:03:08.279Z,98837.30
2019-04-26T12:05:57.680Z,98837.30
2019-04-26T12:08:32.049Z,98846.52
2019-04-26T12:11:17.574Z,98836.61
2019-04-26T12:13:40.769Z,98842.84
2019-04-26T12:16:14.563Z,98842.84
2019-04-26T12:18:47.883Z,98818.92
2019-04-26T12:21:20.582Z,98818.92
2019-04-26T12:23:55.449Z,98823.72
2019-04-26T12:26:27.769Z,98828.48
2019-04-26T12:29:01.728Z,98847.01
2019-04-26T12:31:34.357Z,98851.04
2019-04-26T12:34:06.829Z,98857.27
2019-04-26T12:36:41.455Z,98863.63
2019-04-26T12:39:14.452Z,98852.24
2019-04-26T12:41:46.441Z,98850.45
2019-04-26T12:44:19.297Z,98839.64
2019-04-26T12:46:53.491Z,98827.97
2019-04-26T12:49:26.045Z,98827.97
2019-04-26T12:51:58.632Z,98854.03
2019-04-26T12:54:30.237Z,98852.59
2019-04-26T12:57:05.873Z,98854.70
2019-04-26T12:59:44.277Z,98861.30
2019-04-26T13:02:16.707Z,98875.14
2019-04-26T13:04:47.294Z,98875.14
2019-04-26T13:07:23.784Z,98873.19
2019-04-26T13:10:13.226Z,98875.55
2019-04-26T13:12:47.955Z,98875.55
2019-04-26T13:15:53.323Z,98887.45
2019-04-26T13:18:26.088Z,98868.08
2019-04-26T13:22:54.178Z,98890.97
2019-04-26T13:25:34.446Z,98897.57
2019-04-26T13:28:01.334Z,98899.84
2019-04-26T13:30:33.859Z,98907.98
2019-04-26T13:33:06.522Z,98908.48
2019-04-26T13:35:41.294Z,98910.63
2019-04-26T13:38:13.675Z,98918.72
2019-04-26T13:40:46.455Z,98923.19
2019-04-26T13:43:22.671Z,98927.80
2019-04-26T13:46:11.295Z,98934.38
2019-04-26T13:48:52.694Z,98910.92
2019-04-26T13:51:29.722Z,98910.92
2019-04-26T13:54:02.335Z,98926.80
2019-04-26T13:56:35.995Z,98900.47
2019-04-26T13:59:09.281Z,98900.47
2019-04-26T14:01:41.614Z,98936.33
2019-04-26T14:04:14.359Z,98936.33
2019-04-26T14:06:47.051Z,98939.20
2019-04-26T14:09:19.618Z,98946.61
2019-04-26T14:11:52.260Z,98946.48
2019-04-26T14:14:24.703Z,98946.70
2019-04-26T14:16:58.795Z,98907.37
2019-04-26T14:19:31.653Z,98907.37
2019-04-26T14:22:07.115Z,98940.56
2019-04-26T14:24:46.360Z,98936.55
2019-04-26T14:27:23.521Z,98929.70
2019-04-26T14:29:55.954Z,98929.70
2019-04-26T14:32:28.348Z,98928.81
2019-04-26T14:35:01.496Z,98922.18
2019-04-26T14:37:34.323Z,98925.61
2019-04-26T14:40:17.152Z,98914.95
2019-04-26T14:42:47.081Z,98914.95
2019-04-26T14:45:23.653Z,98917.89
2019-04-26T14:47:51.865Z,98911.72
2019-04-26T14:50:28.208Z,98916.41
2019-04-26T14:53:02.368Z,98907.56
2019-04-26T14:55:33.506Z,98908.42
2019-04-26T14:58:06.282Z,98898.98
2019-04-26T15:00:43.837Z,98890.82
2019-04-26T15:03:24.305Z,98890.82
2019-04-26T15:06:02.905Z,98887.01
2019-04-26T15:08:36.691Z,98887.01
2019-04-26T15:11:09.304Z,98895.93
2019-04-26T15:13:43.750Z,98906.52
2019-04-26T15:16:16.300Z,98913.14
2019-04-26T15:18:48.546Z,98916.30
2019-04-26T15:21:22.799Z,98916.30
2019-04-26T15:23:59.374Z,98920.34
2019-04-26T15:26:29.967Z,98915.88
2019-04-26T15:29:04.469Z,98920.05
2019-04-26T15:31:37.379Z,98928.50
2019-04-26T15:34:09.879Z,98927.13
2019-04-26T15:36:43.426Z,98928.17
2019-04-26T15:39:21.305Z,98926.33
2019-04-26T15:41:54.654Z,98923.42
2019-04-26T15:44:28.392Z,98926.62
2019-04-26T15:50:28.614Z,98921.58
2019-04-26T15:53:02.583Z,98915.60
2019-04-26T15:55:49.315Z,98912.16
2019-04-26T15:58:24.583Z,98902.49
2019-04-26T16:00:57.813Z,98902.49
2019-04-26T16:03:30.767Z,98900.27
2019-04-26T16:06:07.076Z,98903.42
2019-04-26T16:08:42.594Z,98912.69
2019-04-26T16:11:12.858Z,98917.80
2019-04-26T16:13:54.120Z,98914.80
2019-04-26T16:16:20.673Z,98919.52
2019-04-26T16:18:57.189Z,98918.35
2019-04-26T16:21:29.864Z,98894.67
2019-04-26T16:24:02.865Z,98894.67
2019-04-26T16:26:36.466Z,98921.13
2019-04-26T16:29:08.754Z,98920.09
2019-04-26T16:31:47.298Z,98923.78
2019-04-26T16:34:23.269Z,98927.91
2019-04-26T16:36:55.995Z,98924.00
2019-04-26T16:39:38.274Z,98930.03
2019-04-26T16:42:07.345Z,98928.36
2019-04-26T16:44:38.796Z,98944.42
2019-04-26T16:47:13.289Z,98948.56
2019-04-26T16:49:46.724Z,98948.56
2019-04-26T16:52:19.439Z,98926.50
2019-04-26T16:54:53.057Z,98930.55
2019-04-26T16:57:26.028Z,98927.89
2019-04-26T17:00:00.211Z,98927.89
2019-04-26T17:02:36.975Z,98940.98
2019-04-26T17:05:28.678Z,98931.99
2019-04-26T17:07:47.330Z,98937.02
2019-04-26T17:10:20.825Z,98914.99
2019-04-26T17:12:54.455Z,98914.99
2019-04-26T17:15:26.249Z,98933.50
2019-04-26T17:17:58.231Z,98938.78
2019-04-26T17:20:32.196Z,98947.20
2019-04-26T17:23:04.699Z,98941.70
2019-04-26T17:25:55.241Z,98944.95
2019-04-26T17:28:26.614Z,98945.08
2019-04-26T17:30:59.507Z,98943.53
2019-04-26T17:33:32.722Z,98948.44
2019-04-26T17:36:05.543Z,98956.50
2019-04-26T17:38:39.171Z,98955.63
2019-04-26T17:41:14.018Z,98956.53
2019-04-26T17:43:49.096Z,98957.34
2019-04-26T17:46:21.693Z,98959.05
2019-04-26T17:48:55.583Z,98959.05
2019-04-26T17:51:41.866Z,98957.30
2019-04-26T17:54:26.609Z,98952.82
2019-04-26T17:56:54.659Z,98951.61
2019-04-26T17:59:33.590Z,98954.59
2019-04-26T18:02:01.517Z,98957.81
2019-04-26T18:04:37.412Z,98967.02
2019-04-26T18:07:36.104Z,98962.06
2019-04-26T18:09:46.637Z,98967.36
2019-04-26T18:12:18.382Z,98968.33
2019-04-26T18:14:51.139Z,98966.88
2019-04-26T18:17:25.330Z,98973.58
2019-04-26T18:20:15.524Z,98968.09
2019-04-26T18:22:48.068Z,98968.09
2019-04-26T18:25:21.074Z,98969.19
2019-04-26T18:27:54.037Z,98969.58
2019-04-26T18:30:27.646Z,98968.37
2019-04-26T18:33:00.356Z,98970.69
2019-04-26T18:35:34.312Z,98969.92
2019-04-26T18:38:08.624Z,98953.77
2019-04-26T18:40:58.435Z,98953.77
2019-04-26T18:43:23.562Z,98972.14
2019-04-26T18:45:53.271Z,98975.63
2019-04-26T18:48:26.306Z,98969.66
2019-04-26T18:51:00.597Z,98976.73
2019-04-26T18:53:39.458Z,98978.30
2019-04-26T18:56:12.643Z,98974.47
2019-04-26T18:58:45.309Z,98986.30
2019-04-26T19:01:19.569Z,98984.98
2019-04-26T19:03:54.149Z,98984.98
2019-04-26T19:06:31.564Z,98974.00
2019-04-26T19:09:04.132Z,98974.00
2019-04-26T19:11:37.313Z,98980.34
2019-04-26T19:14:13.483Z,98981.57
2019-04-26T19:16:58.703Z,98981.57
2019-04-26T19:19:32.960Z,98970.58
2019-04-26T19:25:01.953Z,98974.55
2019-04-26T19:27:49.357Z,98981.71
2019-04-26T19:30:16.735Z,98979.48
2019-04-26T19:32:53.607Z,98978.57
2019-04-26T19:35:29.770Z,98974.10
2019-04-26T19:38:07.488Z,98977.98
2019-04-26T19:40:46.569Z,98981.63
2019-04-26T19:43:30.157Z,98982.35
2019-04-26T19:46:17.090Z,98983.95
2019-04-26T19:48:55.359Z,98976.02
2019-04-26T19:51:33.370Z,98956.64
2019-04-26T19:54:14.555Z,98956.64
2019-04-26T19:56:51.865Z,98983.27
2019-04-26T19:59:27.517Z,98987.65
2019-04-26T20:02:01.560Z,98987.73
2019-04-26T20:04:41.851Z,98986.83
2019-04-26T20:07:16.247Z,98991.42
2019-04-26T20:09:52.409Z,98991.80
2019-04-26T20:12:29.493Z,98990.29
2019-04-26T20:15:02.303Z,98989.88
2019-04-26T20:17:38.858Z,98998.44
2019-04-26T20:20:20.715Z,98990.59
2019-04-26T20:22:46.286Z,98997.01
2019-04-26T20:25:18.975Z,98994.68
2019-04-26T20:27:53.713Z,98994.68
2019-04-26T20:30:33.393Z,98993.77
2019-04-26T20:33:05.993Z,98970.17
2019-04-26T20:35:38.418Z,98970.17
2019-04-26T20:38:11.897Z,98998.03
2019-04-26T20:40:47.553Z,99004.53
2019-04-26T20:43:24.477Z,98999.86
2019-04-26T20:46:10.494Z,98993.86
2019-04-26T20:48:30.143Z,98993.86
2019-04-26T20:51:06.584Z,99005.97
2019-04-26T20:53:41.104Z,98997.50
2019-04-26T20:56:16.666Z,98999.27
2019-04-26T20:58:47.210Z,99007.88
2019-04-26T21:01:20.029Z,99010.13
2019-04-26T21:03:55.491Z,99006.67
2019-04-26T21:06:29.240Z,99007.08
2019-04-26T21:09:08.636Z,99004.44
2019-04-26T21:11:42.470Z,99008.48
2019-04-26T21:14:16.055Z,99002.30
2019-04-26T21:16:49.405Z,99002.30
2019-04-26T21:19:22.766Z,99016.41
2019-04-26T21:21:55.322Z,99011.64
2019-04-26T21:24:29.267Z,99012.05
2019-04-26T21:27:09.415Z,99010.12
2019-04-26T21:30:01.237Z,99015.67
2019-04-26T21:32:39.251Z,99022.80
2019-04-26T21:35:13.778Z,99019.84
2019-04-26T21:38:06.386Z,99023.68
2019-04-26T21:40:40.300Z,99018.19
2019-04-26T21:43:12.543Z,99032.64
2019-04-26T21:45:45.685Z,99039.42
2019-04-26T21:48:18.378Z,99041.93
2019-04-26T21:50:51.309Z,99043.78
2019-04-26T21:53:24.262Z,99048.74
2019-04-26T21:55:57.295Z,99048.74
2019-04-26T21:58:29.773Z,99062.02
2019-04-26T22:01:11.087Z,99062.02
2019-04-26T22:03:53.540Z,99070.58
2019-04-26T22:06:25.125Z,99063.34
2019-04-26T22:08:59.296Z,99070.55
2019-04-26T22:11:30.611Z,99070.55
2019-04-26T22:14:08.078Z,99073.69
2019-04-26T22:16:41.379Z,99065.77
2019-04-26T22:19:15.580Z,99067.09
2019-04-26T22:21:54.409Z,99065.16
2019-04-26T22:24:28.932Z,99063.45
2019-04-26T22:27:01.447Z,99064.84
2019-04-26T22:29:33.776Z,99071.72
2019-04-26T22:32:06.495Z,99064.45
2019-04-26T22:34:41.428Z,99067.16
2019-04-26T22:37:16.168Z,99066.84
2019-04-26T22:39:48.319Z,99071.50
2019-04-26T22:42:23.483Z,99032.83
2019-04-26T22:44:55.899Z,99032.83
2019-04-26T22:47:33.982Z,99067.44
2019-04-26T22:50:05.995Z,99055.95
2019-04-26T22:52:40.299Z,99056.84
2019-04-26T22:57:53.015Z,99055.95
2019-04-26T23:00:29.456Z,99054.80
2019-04-26T23:03:07.285Z,99057.45
2019-04-26T23:05:43.746Z,99057.52
2019-04-26T23:08:19.354Z,99060.79
2019-04-26T23:10:56.335Z,99067.45
2019-04-26T23:13:33.852Z,99065.03
2019-04-26T23:16:11.402Z,99060.53
2019-04-26T23:18:57.628Z,99060.53
2019-04-26T23:21:37.327Z,99060.91
2019-04-26T23:24:17.535Z,99060.03
2019-04-26T23:26:47.462Z,99060.31
2019-04-26T23:29:19.875Z,99059.48
2019-04-26T23:31:55.244Z,99066.14
2019-04-26T23:34:27.078Z,99065.82
2019-04-26T23:36:59.885Z,99061.19
2019-04-26T23:39:32.847Z,99061.19
2019-04-26T23:42:06.304Z,99061.30
2019-04-26T23:44:41.177Z,99065.76
2019-04-26T23:47:22.494Z,99062.57
2019-04-26T23:50:04.319Z,99063.19
2019-04-26T23:52:38.270Z,99033.81
2019-04-26T23:55:10.953Z,99051.47
2019-04-26T23:57:43.534Z,99051.47
